Time;durP1;ratioP1;P1;durP2;ratioP2;P2;SDS_P1;SDS_P2;PMS_P1;PMS_P2;Temp;Humidity;BMP_temperature;BMP_pressure;BME280_temperature;BME280_humidity;BME280_pressure;Samples;Min_cycle;Max_cycle;Signal;HPM_P1;HPM_P2
2022/06/28 00:01:57;;;;;;;17.07;15.37;;;;;;;;;;5135399;27;20446;-67
2022/06/28 00:04:26;;;;;;;16.70;14.87;;;;;;;;;;5135400;27;20458;-67
2022/06/28 00:06:53;;;;;;;18.43;16.50;;;;;;;;;;5135033;27;21005;-67
2022/06/28 00:09:21;;;;;;;18.53;16.60;;;;;;;;;;5135311;27;20438;-68
2022/06/28 00:11:48;;;;;;;24.83;16.43;;;;;;;;;;5135558;27;20451;-67
2022/06/28 00:17:00;;;;;;;18.97;16.07;;;;;;;;;;5135114;27;20433;-67
2022/06/28 00:19:29;;;;;;;20.70;17.37;;;;;;;;;;5135063;27;20438;-67
2022/06/28 00:21:56;;;;;;;20.87;16.43;;;;;;;;;;5135317;27;20449;-67
2022/06/28 00:24:23;;;;;;;17.90;16.00;;;;;;;;;;5135036;27;20997;-68
2022/06/28 00:26:51;;;;;;;17.13;15.33;;;;;;;;;;5134866;27;20441;-67
2022/06/28 00:29:18;;;;;;;19.30;15.83;;;;;;;;;;5135359;27;20470;-67
2022/06/28 00:31:45;;;;;;;20.43;17.13;;;;;;;;;;5135073;27;20787;-67
2022/06/28 00:34:13;;;;;;;18.70;16.80;;;;;;;;;;5135068;27;20740;-68
2022/06/28 00:36:41;;;;;;;19.83;17.07;;;;;;;;;;5135220;27;20525;-67
2022/06/28 00:39:08;;;;;;;19.07;16.60;;;;;;;;;;5135033;27;20531;-67
2022/06/28 00:41:36;;;;;;;19.00;17.03;;;;;;;;;;5135151;27;20865;-67
2022/06/28 00:44:03;;;;;;;20.43;17.50;;;;;;;;;;5134952;27;20541;-67
2022/06/28 00:46:33;;;;;;;19.60;17.50;;;;;;;;;;5135198;27;20454;-67
2022/06/28 00:49:00;;;;;;;18.40;16.60;;;;;;;;;;5134967;27;20517;-67
2022/06/28 00:51:28;;;;;;;19.67;17.70;;;;;;;;;;5135105;27;20558;-67
2022/06/28 00:53:56;;;;;;;21.00;16.23;;;;;;;;;;5134447;27;20477;-67
2022/06/28 00:56:24;;;;;;;23.40;16.27;;;;;;;;;;5134396;27;20449;-67
2022/06/28 00:58:55;;;;;;;20.17;18.17;;;;;;;;;;5134494;27;20445;-67
2022/06/28 01:01:22;;;;;;;19.90;17.80;;;;;;;;;;5134836;27;20973;-67
2022/06/28 01:03:50;;;;;;;19.57;17.53;;;;;;;;;;5135005;27;20443;-67
2022/06/28 01:06:17;;;;;;;19.83;17.83;;;;;;;;;;5134289;27;21004;-67
2022/06/28 01:08:46;;;;;;;22.63;18.57;;;;;;;;;;5134306;27;20430;-67
2022/06/28 01:11:21;;;;;;;19.57;17.57;;;;;;;;;;5134212;27;20446;-67
2022/06/28 01:13:49;;;;;;;19.43;17.43;;;;;;;;;;5134859;27;20464;-67
2022/06/28 01:16:17;;;;;;;21.30;19.13;;;;;;;;;;5134058;28;20430;-67
2022/06/28 01:18:44;;;;;;;23.73;20.60;;;;;;;;;;5137719;27;20442;-67
2022/06/28 01:21:13;;;;;;;22.73;20.33;;;;;;;;;;5140988;27;20534;-67
2022/06/28 01:23:42;;;;;;;21.87;19.57;;;;;;;;;;5141423;27;20524;-67
2022/06/28 01:26:09;;;;;;;26.83;18.90;;;;;;;;;;5140929;27;20456;-67
2022/06/28 01:28:37;;;;;;;22.43;20.13;;;;;;;;;;5141011;27;20442;-67
2022/06/28 01:31:05;;;;;;;21.97;19.67;;;;;;;;;;5141197;27;20485;-67
2022/06/28 01:33:33;;;;;;;24.33;20.80;;;;;;;;;;5141203;27;20516;-67
2022/06/28 01:36:00;;;;;;;23.93;20.17;;;;;;;;;;5141180;27;20529;-67
2022/06/28 01:38:27;;;;;;;30.67;21.53;;;;;;;;;;5141489;27;20437;-67
2022/06/28 01:40:56;;;;;;;26.30;22.23;;;;;;;;;;5140822;27;20532;-67
2022/06/28 01:43:23;;;;;;;29.07;21.93;;;;;;;;;;5141261;27;20437;-67
2022/06/28 01:45:51;;;;;;;22.77;20.27;;;;;;;;;;5141224;27;20529;-67
2022/06/28 01:48:19;;;;;;;26.30;21.40;;;;;;;;;;5140751;27;20535;-68
2022/06/28 01:50:46;;;;;;;23.40;20.90;;;;;;;;;;5141104;27;20555;-67
2022/06/28 01:53:13;;;;;;;26.60;21.60;;;;;;;;;;5141049;27;20856;-68
2022/06/28 01:55:41;;;;;;;26.97;22.50;;;;;;;;;;5140677;27;20548;-67
2022/06/28 01:58:10;;;;;;;27.73;22.50;;;;;;;;;;5140688;27;20918;-67
2022/06/28 02:00:38;;;;;;;35.10;22.63;;;;;;;;;;5141066;27;20476;-67
2022/06/28 02:03:05;;;;;;;30.73;22.67;;;;;;;;;;5140620;27;20941;-67
2022/06/28 02:05:33;;;;;;;24.60;21.43;;;;;;;;;;5141034;27;20868;-67
2022/06/28 02:08:00;;;;;;;31.07;22.07;;;;;;;;;;5140559;27;20521;-68
2022/06/28 02:10:28;;;;;;;24.87;21.80;;;;;;;;;;5141393;27;20522;-68
2022/06/28 02:12:55;;;;;;;28.30;23.97;;;;;;;;;;5141029;27;20786;-67
2022/06/28 02:15:23;;;;;;;30.40;22.30;;;;;;;;;;5140825;27;20483;-67
2022/06/28 02:17:51;;;;;;;26.50;22.67;;;;;;;;;;5141363;27;20488;-67
2022/06/28 02:20:18;;;;;;;29.10;24.87;;;;;;;;;;5140875;27;20525;-67
2022/06/28 02:22:45;;;;;;;29.83;24.63;;;;;;;;;;5140397;27;20440;-67
2022/06/28 02:25:12;;;;;;;26.93;23.70;;;;;;;;;;5140538;27;20520;-67
2022/06/28 02:27:40;;;;;;;33.40;24.60;;;;;;;;;;5140724;27;20517;-67
2022/06/28 02:30:08;;;;;;;30.53;26.13;;;;;;;;;;5139291;27;20441;-67
2022/06/28 02:32:36;;;;;;;31.23;27.83;;;;;;;;;;5137304;27;20539;-67
2022/06/28 02:40:33;;;;;;;34.93;27.63;;;;;;;;;;5137528;27;20803;-67
2022/06/28 02:43:01;;;;;;;34.63;27.90;;;;;;;;;;5137483;27;20436;-67
2022/06/28 02:45:30;;;;;;;41.33;28.63;;;;;;;;;;5137225;27;20476;-67
2022/06/28 02:47:58;;;;;;;34.63;28.53;;;;;;;;;;5137427;27;20448;-67
2022/06/28 02:50:25;;;;;;;33.87;27.87;;;;;;;;;;5137402;27;20557;-67
2022/06/28 02:52:53;;;;;;;33.87;28.67;;;;;;;;;;5136707;27;20438;-67
2022/06/28 02:55:20;;;;;;;32.27;27.17;;;;;;;;;;5136697;27;20541;-67
2022/06/28 02:57:48;;;;;;;35.20;29.30;;;;;;;;;;5136897;27;20444;-67
2022/06/28 03:00:16;;;;;;;37.57;29.00;;;;;;;;;;5136988;27;20521;-68
2022/06/28 03:02:44;;;;;;;38.20;28.77;;;;;;;;;;5136864;27;20439;-67
2022/06/28 03:05:14;;;;;;;32.63;28.97;;;;;;;;;;5136760;27;20515;-68
2022/06/28 03:07:41;;;;;;;32.57;26.87;;;;;;;;;;5136971;27;20525;-68
2022/06/28 03:10:09;;;;;;;39.20;29.93;;;;;;;;;;5136826;27;20529;-68
2022/06/28 03:12:36;;;;;;;31.17;26.63;;;;;;;;;;5136672;27;20526;-67
2022/06/28 03:15:04;;;;;;;33.40;28.23;;;;;;;;;;5136615;27;20564;-67
2022/06/28 03:17:31;;;;;;;34.43;29.30;;;;;;;;;;5136979;27;20870;-67
2022/06/28 03:19:58;;;;;;;36.17;28.77;;;;;;;;;;5137406;27;20529;-67
2022/06/28 03:22:27;;;;;;;39.97;31.00;;;;;;;;;;5136197;27;20434;-66
2022/06/28 03:24:54;;;;;;;35.70;29.07;;;;;;;;;;5136492;27;20536;-68
2022/06/28 03:27:21;;;;;;;40.80;29.80;;;;;;;;;;5136046;27;20450;-67
2022/06/28 03:29:51;;;;;;;37.67;29.50;;;;;;;;;;5136418;27;20446;-67
2022/06/28 03:32:18;;;;;;;34.97;30.20;;;;;;;;;;5136489;27;20810;-67
2022/06/28 03:34:45;;;;;;;32.83;26.80;;;;;;;;;;5135943;27;20473;-70
2022/06/28 03:37:12;;;;;;;35.10;28.70;;;;;;;;;;5135983;27;20962;-67
2022/06/28 03:39:41;;;;;;;37.93;29.33;;;;;;;;;;5136180;27;20529;-67
2022/06/28 03:42:08;;;;;;;31.97;27.87;;;;;;;;;;5135291;27;20999;-66
2022/06/28 03:44:36;;;;;;;38.67;27.97;;;;;;;;;;5135683;27;20448;-66
2022/06/28 03:47:03;;;;;;;35.80;27.70;;;;;;;;;;5135639;27;20443;-67
2022/06/28 03:49:30;;;;;;;35.20;28.37;;;;;;;;;;5125204;27;20517;-66
2022/06/28 03:51:58;;;;;;;34.07;28.77;;;;;;;;;;5113950;28;20443;-66
2022/06/28 03:54:25;;;;;;;33.40;28.80;;;;;;;;;;5114067;28;20524;-66
2022/06/28 03:56:54;;;;;;;29.13;25.47;;;;;;;;;;5114069;28;20447;-66
2022/06/28 03:59:21;;;;;;;29.10;25.70;;;;;;;;;;5114631;28;20525;-67
2022/06/28 04:01:49;;;;;;;35.83;28.07;;;;;;;;;;5114688;28;20861;-66
2022/06/28 04:04:16;;;;;;;37.23;27.80;;;;;;;;;;5114404;28;20526;-66
2022/06/28 04:06:43;;;;;;;37.33;27.37;;;;;;;;;;5114904;28;20523;-66
2022/06/28 04:09:10;;;;;;;39.03;29.53;;;;;;;;;;5114262;28;20530;-66
2022/06/28 04:11:37;;;;;;;35.73;27.67;;;;;;;;;;5114331;28;20488;-66
2022/06/28 04:14:06;;;;;;;30.37;26.20;;;;;;;;;;5113965;28;20526;-66
2022/06/28 04:16:33;;;;;;;29.73;25.10;;;;;;;;;;5114036;28;20667;-66
2022/06/28 04:19:00;;;;;;;29.43;23.93;;;;;;;;;;5114038;28;20610;-67
2022/06/28 04:21:28;;;;;;;22.07;19.77;;;;;;;;;;5114014;28;20527;-66
2022/06/28 04:23:55;;;;;;;27.07;21.83;;;;;;;;;;5114018;28;20478;-66
2022/06/28 04:26:22;;;;;;;22.93;20.30;;;;;;;;;;5114281;28;20531;-67
2022/06/28 04:28:50;;;;;;;20.77;18.47;;;;;;;;;;5114150;28;20440;-67
2022/06/28 04:31:18;;;;;;;21.63;19.37;;;;;;;;;;5113710;28;21001;-67
2022/06/28 04:33:45;;;;;;;20.50;18.30;;;;;;;;;;5114034;28;20849;-67
2022/06/28 04:36:13;;;;;;;23.00;20.40;;;;;;;;;;5113937;28;20511;-66
2022/06/28 04:38:40;;;;;;;20.73;18.60;;;;;;;;;;5113396;28;20939;-66
2022/06/28 04:41:07;;;;;;;23.53;20.43;;;;;;;;;;5113503;28;20994;-66
2022/06/28 04:43:34;;;;;;;22.63;20.23;;;;;;;;;;5113883;28;20444;-66
2022/06/28 04:46:02;;;;;;;22.50;19.83;;;;;;;;;;5113825;28;20492;-66
2022/06/28 04:48:30;;;;;;;24.00;19.73;;;;;;;;;;5113706;28;20432;-66
2022/06/28 04:51:10;;;;;;;21.80;19.53;;;;;;;;;;5114322;28;20554;-66
2022/06/28 04:53:38;;;;;;;20.83;18.37;;;;;;;;;;5113081;28;20436;-67
2022/06/28 04:56:05;;;;;;;23.17;16.27;;;;;;;;;;5114574;28;20486;-66
2022/06/28 04:58:32;;;;;;;18.73;16.70;;;;;;;;;;5114118;28;20437;-66
2022/06/28 05:01:00;;;;;;;16.83;14.60;;;;;;;;;;5114474;28;20481;-66
2022/06/28 05:03:27;;;;;;;14.20;12.67;;;;;;;;;;5113829;28;20848;-67
2022/06/28 05:05:56;;;;;;;13.37;11.97;;;;;;;;;;5113327;28;21045;-67
2022/06/28 05:08:23;;;;;;;13.10;10.83;;;;;;;;;;5114039;28;20436;-67
2022/06/28 05:10:50;;;;;;;15.63;11.00;;;;;;;;;;5113972;28;20447;-68
2022/06/28 05:13:18;;;;;;;16.23;11.00;;;;;;;;;;5113767;28;20523;-67
2022/06/28 05:15:45;;;;;;;13.37;11.80;;;;;;;;;;5113532;28;20472;-66
2022/06/28 05:18:12;;;;;;;14.90;12.53;;;;;;;;;;5114223;28;20448;-66
2022/06/28 05:20:39;;;;;;;15.80;12.50;;;;;;;;;;5113537;28;20534;-70
2022/06/28 05:23:08;;;;;;;15.33;13.23;;;;;;;;;;5113955;28;20524;-66
2022/06/28 05:25:35;;;;;;;17.40;12.73;;;;;;;;;;5113901;28;20444;-66
2022/06/28 05:28:02;;;;;;;13.87;12.57;;;;;;;;;;5113991;28;20540;-67
2022/06/28 05:30:30;;;;;;;15.27;11.87;;;;;;;;;;5113551;28;21013;-66
2022/06/28 05:32:57;;;;;;;14.33;12.70;;;;;;;;;;5113897;28;20541;-66
2022/06/28 05:35:24;;;;;;;17.67;15.63;;;;;;;;;;5113436;28;20997;-66
2022/06/28 05:37:51;;;;;;;15.13;12.50;;;;;;;;;;5113827;28;20441;-66
2022/06/28 05:40:21;;;;;;;14.83;12.33;;;;;;;;;;5113940;28;20453;-67
2022/06/28 05:42:48;;;;;;;14.50;12.20;;;;;;;;;;5114430;28;20439;-67
2022/06/28 05:45:15;;;;;;;14.67;13.17;;;;;;;;;;5113530;28;20448;-67
2022/06/28 05:47:42;;;;;;;12.93;11.70;;;;;;;;;;5113403;28;20445;-66
2022/06/28 05:50:10;;;;;;;16.70;11.80;;;;;;;;;;5113331;28;20474;-66
2022/06/28 05:52:37;;;;;;;14.37;11.70;;;;;;;;;;5113375;28;20535;-67
2022/06/28 05:55:04;;;;;;;14.53;12.10;;;;;;;;;;5113511;28;20472;-66
2022/06/28 05:57:33;;;;;;;13.30;11.47;;;;;;;;;;5113609;28;20524;-67
2022/06/28 06:00:00;;;;;;;12.40;10.57;;;;;;;;;;5113220;28;20475;-66
2022/06/28 06:02:27;;;;;;;16.43;13.10;;;;;;;;;;5113612;28;20524;-66
2022/06/28 06:04:55;;;;;;;13.50;11.70;;;;;;;;;;5115308;28;20526;-66
2022/06/28 06:07:23;;;;;;;15.43;11.47;;;;;;;;;;5117548;28;20885;-66
2022/06/28 06:09:50;;;;;;;12.33;10.97;;;;;;;;;;5117000;28;20475;-66
2022/06/28 06:12:17;;;;;;;14.80;12.57;;;;;;;;;;5117066;28;20968;-67
2022/06/28 06:14:46;;;;;;;19.27;11.87;;;;;;;;;;5117183;28;20438;-66
2022/06/28 06:17:13;;;;;;;17.63;11.70;;;;;;;;;;5117216;28;20484;-66
2022/06/28 06:19:40;;;;;;;16.07;11.77;;;;;;;;;;5116852;28;20934;-66
2022/06/28 06:22:07;;;;;;;18.47;11.83;;;;;;;;;;5116903;28;20522;-66
2022/06/28 06:24:35;;;;;;;15.93;11.87;;;;;;;;;;5116672;28;20449;-66
2022/06/28 06:27:02;;;;;;;17.30;12.90;;;;;;;;;;5117084;28;20535;-66
2022/06/28 06:29:29;;;;;;;12.60;11.20;;;;;;;;;;5116714;28;21000;-66
2022/06/28 06:31:58;;;;;;;14.10;10.90;;;;;;;;;;5116621;28;20443;-66
2022/06/28 06:34:25;;;;;;;13.63;11.20;;;;;;;;;;5116557;28;20452;-66
2022/06/28 06:36:52;;;;;;;12.43;11.10;;;;;;;;;;5116764;28;20478;-66
2022/06/28 06:39:19;;;;;;;14.67;11.60;;;;;;;;;;5116593;28;20937;-66
2022/06/28 06:41:47;;;;;;;12.50;10.47;;;;;;;;;;5116754;28;20453;-66
2022/06/28 06:44:14;;;;;;;16.80;11.20;;;;;;;;;;5117262;28;20439;-67
2022/06/28 06:46:41;;;;;;;14.37;11.47;;;;;;;;;;5116449;28;20543;-66
2022/06/28 06:49:14;;;;;;;13.80;10.53;;;;;;;;;;5116883;28;20519;-66
2022/06/28 06:51:43;;;;;;;12.30;10.37;;;;;;;;;;5096369;28;20483;-66
2022/06/28 06:54:10;;;;;;;15.43;10.83;;;;;;;;;;5096155;28;20525;-66
2022/06/28 06:56:38;;;;;;;16.37;11.03;;;;;;;;;;5096021;28;20482;-66
2022/06/28 06:59:07;;;;;;;14.77;11.40;;;;;;;;;;5096035;28;20455;-67
2022/06/28 07:01:34;;;;;;;18.57;11.87;;;;;;;;;;5095884;28;20438;-66
2022/06/28 07:04:01;;;;;;;13.67;11.23;;;;;;;;;;5096033;28;20519;-66
2022/06/28 07:06:30;;;;;;;14.47;11.90;;;;;;;;;;5095546;28;20535;-66
2022/06/28 07:08:57;;;;;;;13.43;9.80;;;;;;;;;;5095655;28;20534;-66
2022/06/28 07:11:24;;;;;;;14.63;11.43;;;;;;;;;;5096064;28;20483;-66
2022/06/28 07:13:52;;;;;;;14.77;11.50;;;;;;;;;;5096152;28;20507;-67
2022/06/28 07:16:19;;;;;;;15.80;12.00;;;;;;;;;;5094253;28;20465;-66
2022/06/28 07:18:46;;;;;;;13.10;10.90;;;;;;;;;;5095400;28;20442;-67
2022/06/28 07:21:13;;;;;;;12.10;10.77;;;;;;;;;;5095447;28;20486;-67
2022/06/28 07:23:42;;;;;;;12.30;10.70;;;;;;;;;;5095607;28;20457;-66
2022/06/28 07:26:09;;;;;;;11.93;10.00;;;;;;;;;;5095118;28;20930;-66
2022/06/28 07:28:37;;;;;;;16.47;10.50;;;;;;;;;;5095635;28;20470;-67
2022/06/28 07:31:04;;;;;;;10.40;9.37;;;;;;;;;;5095507;28;20493;-67
2022/06/28 07:33:32;;;;;;;11.67;10.47;;;;;;;;;;5095046;28;20815;-67
2022/06/28 07:35:59;;;;;;;11.70;10.57;;;;;;;;;;5095180;28;20834;-67
2022/06/28 07:38:29;;;;;;;13.40;10.87;;;;;;;;;;5095265;28;20450;-67
2022/06/28 07:40:58;;;;;;;12.33;11.10;;;;;;;;;;5095442;28;20462;-67
2022/06/28 07:43:26;;;;;;;12.40;11.20;;;;;;;;;;5095143;28;20430;-66
2022/06/28 07:45:53;;;;;;;11.57;10.47;;;;;;;;;;5095246;28;20437;-66
2022/06/28 07:48:20;;;;;;;16.80;11.00;;;;;;;;;;5094661;28;20985;-66
2022/06/28 07:53:33;;;;;;;16.23;10.93;;;;;;;;;;5115267;28;20415;-66
2022/06/28 07:56:01;;;;;;;11.93;10.47;;;;;;;;;;5114833;28;20489;-67
2022/06/28 07:58:29;;;;;;;14.23;11.60;;;;;;;;;;5115280;28;20439;-66
2022/06/28 08:00:56;;;;;;;14.40;11.60;;;;;;;;;;5115238;28;20486;-66
2022/06/28 08:03:23;;;;;;;13.57;9.70;;;;;;;;;;5115429;28;20444;-66
2022/06/28 08:05:50;;;;;;;11.70;9.20;;;;;;;;;;5115782;28;21011;-67
2022/06/28 08:08:18;;;;;;;10.50;9.50;;;;;;;;;;5114624;28;20443;-66
2022/06/28 08:10:45;;;;;;;10.20;9.13;;;;;;;;;;5114667;28;20529;-66
2022/06/28 08:13:16;;;;;;;9.60;7.33;;;;;;;;;;5114349;28;20463;-66
2022/06/28 08:15:43;;;;;;;10.57;9.00;;;;;;;;;;5114630;28;20422;-66
2022/06/28 08:18:11;;;;;;;9.63;8.43;;;;;;;;;;5115334;28;20538;-66
2022/06/28 08:20:38;;;;;;;9.17;8.30;;;;;;;;;;5114413;28;20993;-66
2022/06/28 08:23:05;;;;;;;15.33;9.77;;;;;;;;;;5114733;28;20446;-66
2022/06/28 08:25:33;;;;;;;15.47;8.53;;;;;;;;;;5114776;28;20449;-66
2022/06/28 08:28:00;;;;;;;8.67;6.07;;;;;;;;;;5114466;28;20492;-66
2022/06/28 08:30:28;;;;;;;10.73;7.50;;;;;;;;;;5114673;28;20449;-66
2022/06/28 08:32:56;;;;;;;13.03;6.90;;;;;;;;;;5114428;28;20455;-66
2022/06/28 08:35:24;;;;;;;9.07;7.67;;;;;;;;;;5114783;28;20498;-66
2022/06/28 08:37:51;;;;;;;8.20;6.83;;;;;;;;;;5114377;28;20964;-66
2022/06/28 08:40:21;;;;;;;8.07;7.27;;;;;;;;;;5114935;28;20447;-67
2022/06/28 08:42:49;;;;;;;9.77;6.40;;;;;;;;;;5114354;28;20505;-67
2022/06/28 08:45:17;;;;;;;6.83;6.23;;;;;;;;;;5114361;28;20452;-66
2022/06/28 08:47:47;;;;;;;7.67;6.97;;;;;;;;;;5114385;28;20447;-67
2022/06/28 08:50:16;;;;;;;9.73;7.03;;;;;;;;;;5114373;28;20471;-67
2022/06/28 08:52:44;;;;;;;7.13;6.43;;;;;;;;;;5114234;28;20448;-66
2022/06/28 08:55:13;;;;;;;9.37;6.83;;;;;;;;;;5114015;28;20949;-67
2022/06/28 08:57:41;;;;;;;7.07;6.37;;;;;;;;;;5113808;28;20486;-67
2022/06/28 09:00:10;;;;;;;6.40;5.77;;;;;;;;;;5113904;28;20485;-67
2022/06/28 09:02:37;;;;;;;8.43;5.50;;;;;;;;;;5113768;28;20532;-67
2022/06/28 09:05:06;;;;;;;8.73;5.23;;;;;;;;;;5113832;28;20532;-66
2022/06/28 09:07:33;;;;;;;9.23;6.13;;;;;;;;;;5114093;28;20450;-67
2022/06/28 09:10:01;;;;;;;6.40;5.30;;;;;;;;;;5114348;28;20472;-66
2022/06/28 09:12:28;;;;;;;9.17;5.43;;;;;;;;;;5113900;28;20476;-67
2022/06/28 09:14:57;;;;;;;6.10;5.00;;;;;;;;;;5113640;28;20526;-66
2022/06/28 09:17:25;;;;;;;7.17;4.70;;;;;;;;;;5113666;28;20497;-66
2022/06/28 09:19:55;;;;;;;10.07;4.63;;;;;;;;;;5113938;28;20444;-67
2022/06/28 09:22:31;;;;;;;9.40;5.20;;;;;;;;;;5114197;28;20529;-66
2022/06/28 09:24:58;;;;;;;12.27;5.83;;;;;;;;;;5113878;28;20451;-67
2022/06/28 09:27:29;;;;;;;7.17;4.30;;;;;;;;;;5113820;28;20450;-67
2022/06/28 09:29:57;;;;;;;5.60;4.10;;;;;;;;;;5113975;28;20431;-67
2022/06/28 09:32:28;;;;;;;9.80;4.57;;;;;;;;;;5113975;28;20528;-66
2022/06/28 09:34:56;;;;;;;5.10;4.00;;;;;;;;;;5113509;28;20442;-66
2022/06/28 09:37:40;;;;;;;9.73;3.47;;;;;;;;;;5113392;28;20476;-66
2022/06/28 09:40:14;;;;;;;5.03;4.23;;;;;;;;;;5115988;28;20438;-66
2022/06/28 09:42:41;;;;;;;3.90;3.10;;;;;;;;;;5117844;28;20527;-66
2022/06/28 09:45:09;;;;;;;6.13;2.73;;;;;;;;;;5117926;28;20521;-67
2022/06/28 09:47:37;;;;;;;3.70;2.70;;;;;;;;;;5117950;28;20955;-66
2022/06/28 09:50:06;;;;;;;6.20;5.20;;;;;;;;;;5117869;28;20556;-66
2022/06/28 09:52:35;;;;;;;3.63;2.67;;;;;;;;;;5117332;28;20443;-66
2022/06/28 09:55:04;;;;;;;5.47;2.83;;;;;;;;;;5117740;28;20797;-66
2022/06/28 09:57:33;;;;;;;3.70;2.37;;;;;;;;;;5117938;28;20504;-66
2022/06/28 10:00:00;;;;;;;5.17;2.50;;;;;;;;;;5117797;28;20521;-66
2022/06/28 10:02:29;;;;;;;6.13;2.23;;;;;;;;;;5117650;28;20517;-66
2022/06/28 10:05:00;;;;;;;4.97;2.13;;;;;;;;;;5117210;28;20449;-67
2022/06/28 10:07:28;;;;;;;4.93;2.50;;;;;;;;;;5117203;28;20525;-66
2022/06/28 10:09:55;;;;;;;4.00;2.60;;;;;;;;;;5117444;28;20449;-66
2022/06/28 10:15:09;;;;;;;4.23;2.30;;;;;;;;;;5117323;28;20400;-66
2022/06/28 10:17:45;;;;;;;4.20;2.20;;;;;;;;;;5117624;28;20517;-66
2022/06/28 10:20:13;;;;;;;4.37;2.10;;;;;;;;;;5117307;28;20429;-66
2022/06/28 10:22:40;;;;;;;5.17;2.40;;;;;;;;;;5117465;28;20478;-66
2022/06/28 10:25:15;;;;;;;2.43;1.90;;;;;;;;;;5117110;28;20795;-66
2022/06/28 10:27:46;;;;;;;6.17;2.10;;;;;;;;;;5117462;28;20509;-67
2022/06/28 10:30:21;;;;;;;2.80;2.00;;;;;;;;;;5117362;28;20842;-66
2022/06/28 10:32:49;;;;;;;4.57;2.30;;;;;;;;;;5116626;28;20438;-67
2022/06/28 10:35:35;;;;;;;3.57;2.20;;;;;;;;;;5116631;28;20450;-66
2022/06/28 10:38:17;;;;;;;4.00;2.47;;;;;;;;;;5116830;28;20565;-66
2022/06/28 10:40:49;;;;;;;3.90;1.90;;;;;;;;;;5116825;28;20426;-66
2022/06/28 10:43:18;;;;;;;2.80;1.67;;;;;;;;;;5117427;28;20427;-66
2022/06/28 10:46:04;;;;;;;3.97;2.13;;;;;;;;;;5116940;28;20526;-66
2022/06/28 10:48:31;;;;;;;5.97;2.20;;;;;;;;;;5116268;28;21015;-66
2022/06/28 10:50:59;;;;;;;5.53;1.90;;;;;;;;;;5115413;28;20566;-66
2022/06/28 10:53:26;;;;;;;4.60;2.10;;;;;;;;;;5116105;28;20488;-64
2022/06/28 10:56:08;;;;;;;4.40;2.00;;;;;;;;;;5116374;28;20530;-65
2022/06/28 10:58:51;;;;;;;2.70;1.77;;;;;;;;;;5113366;28;20557;-65
2022/06/28 11:01:18;;;;;;;2.20;1.73;;;;;;;;;;5116151;28;20433;-65
2022/06/28 11:04:00;;;;;;;4.70;2.13;;;;;;;;;;5116000;28;20470;-65
2022/06/28 11:06:39;;;;;;;5.00;1.60;;;;;;;;;;5115639;28;20475;-65
2022/06/28 11:09:09;;;;;;;4.27;1.70;;;;;;;;;;5116337;28;20500;-65
2022/06/28 11:11:37;;;;;;;4.17;1.87;;;;;;;;;;5116259;28;20522;-65
2022/06/28 11:14:22;;;;;;;3.50;2.17;;;;;;;;;;5115814;28;20446;-65
2022/06/28 11:17:01;;;;;;;3.10;2.07;;;;;;;;;;5115026;28;20514;-65
2022/06/28 11:19:29;;;;;;;3.77;2.47;;;;;;;;;;5116025;28;20423;-65
2022/06/28 11:21:59;;;;;;;5.73;2.27;;;;;;;;;;5116016;28;20482;-65
2022/06/28 11:24:26;;;;;;;2.97;2.20;;;;;;;;;;5115612;28;20438;-67
2022/06/28 11:27:21;;;;;;;2.50;1.67;;;;;;;;;;5116086;28;20458;-66
2022/06/28 11:29:49;;;;;;;3.97;2.53;;;;;;;;;;5115541;28;20427;-66
2022/06/28 11:32:19;;;;;;;3.87;2.10;;;;;;;;;;5115841;28;20522;-66
2022/06/28 11:34:54;;;;;;;3.97;2.20;;;;;;;;;;5115426;28;20525;-66
2022/06/28 11:37:21;;;;;;;6.07;2.37;;;;;;;;;;5115397;28;20520;-66
2022/06/28 11:39:48;;;;;;;5.43;2.13;;;;;;;;;;5115633;28;20441;-66
2022/06/28 11:42:15;;;;;;;6.20;2.10;;;;;;;;;;5115314;28;20535;-67
2022/06/28 11:44:45;;;;;;;8.07;3.20;;;;;;;;;;5115481;28;20444;-66
2022/06/28 11:47:12;;;;;;;2.07;1.87;;;;;;;;;;5115682;28;20454;-66
2022/06/28 11:49:41;;;;;;;2.80;1.93;;;;;;;;;;5115156;28;20463;-66
2022/06/28 11:52:08;;;;;;;3.60;2.17;;;;;;;;;;5115715;28;20546;-66
2022/06/28 11:54:35;;;;;;;3.30;2.23;;;;;;;;;;5115455;28;20437;-66
2022/06/28 11:57:13;;;;;;;3.70;2.30;;;;;;;;;;5115235;28;20567;-66
2022/06/28 11:59:54;;;;;;;4.43;2.37;;;;;;;;;;5115258;28;20421;-66
2022/06/28 12:02:40;;;;;;;3.67;2.33;;;;;;;;;;5114473;28;20519;-66
2022/06/28 12:05:09;;;;;;;7.10;2.80;;;;;;;;;;5114799;28;20471;-67
2022/06/28 12:07:37;;;;;;;6.03;2.53;;;;;;;;;;5114754;28;20487;-66
2022/06/28 12:10:04;;;;;;;2.13;1.60;;;;;;;;;;5114971;28;20444;-65
2022/06/28 12:12:31;;;;;;;4.20;2.23;;;;;;;;;;5114871;28;20440;-65
2022/06/28 12:14:59;;;;;;;12.90;2.73;;;;;;;;;;5114519;28;20528;-65
2022/06/28 12:17:27;;;;;;;4.40;2.13;;;;;;;;;;5114994;28;20517;-66
2022/06/28 12:19:54;;;;;;;6.33;5.00;;;;;;;;;;5114478;28;20528;-65
2022/06/28 12:22:25;;;;;;;4.30;2.53;;;;;;;;;;5115206;28;20444;-66
2022/06/28 12:24:54;;;;;;;5.20;2.60;;;;;;;;;;5114582;28;20785;-66
2022/06/28 12:27:22;;;;;;;4.13;2.50;;;;;;;;;;5114445;28;20491;-65
2022/06/28 12:29:50;;;;;;;5.67;3.23;;;;;;;;;;5114332;28;20532;-66
2022/06/28 12:32:18;;;;;;;6.37;2.53;;;;;;;;;;5114714;28;20477;-66
2022/06/28 12:34:45;;;;;;;3.90;2.17;;;;;;;;;;5114909;28;20472;-65
2022/06/28 12:37:13;;;;;;;5.80;2.80;;;;;;;;;;5114615;28;20537;-66
2022/06/28 12:39:44;;;;;;;3.33;2.20;;;;;;;;;;5114714;28;20437;-66
2022/06/28 12:42:12;;;;;;;6.10;2.57;;;;;;;;;;5114355;28;20430;-66
2022/06/28 12:44:39;;;;;;;3.07;2.40;;;;;;;;;;5114000;28;20476;-65
2022/06/28 12:47:06;;;;;;;7.83;2.53;;;;;;;;;;5114325;28;20467;-66
2022/06/28 12:49:33;;;;;;;5.73;2.40;;;;;;;;;;5114143;28;20552;-66
2022/06/28 12:52:01;;;;;;;2.70;2.27;;;;;;;;;;5114179;28;20994;-66
2022/06/28 12:54:28;;;;;;;3.20;2.20;;;;;;;;;;5114184;28;20492;-65
2022/06/28 12:56:58;;;;;;;6.53;2.57;;;;;;;;;;5113878;28;20466;-65
2022/06/28 12:59:25;;;;;;;4.30;2.10;;;;;;;;;;5113896;28;20500;-70
2022/06/28 13:01:52;;;;;;;4.93;2.60;;;;;;;;;;5114139;28;20479;-68
2022/06/28 13:04:20;;;;;;;8.10;2.40;;;;;;;;;;5114193;28;20440;-68
2022/06/28 13:06:48;;;;;;;3.53;2.10;;;;;;;;;;5114127;28;20468;-68
2022/06/28 13:09:15;;;;;;;4.47;3.20;;;;;;;;;;5114235;28;20453;-70
2022/06/28 13:11:42;;;;;;;4.40;2.50;;;;;;;;;;5114020;28;20468;-67
2022/06/28 13:14:11;;;;;;;6.73;2.70;;;;;;;;;;5113006;28;21005;-67
2022/06/28 13:16:38;;;;;;;5.13;2.70;;;;;;;;;;5112443;28;20448;-66
2022/06/28 13:19:06;;;;;;;3.77;2.70;;;;;;;;;;5112138;28;21019;-67
2022/06/28 13:21:34;;;;;;;3.57;3.10;;;;;;;;;;5112671;28;20544;-67
2022/06/28 13:24:01;;;;;;;3.10;2.23;;;;;;;;;;5112598;28;20437;-67
2022/06/28 13:26:28;;;;;;;2.47;2.30;;;;;;;;;;5112412;28;20486;-70
2022/06/28 13:28:55;;;;;;;3.60;2.50;;;;;;;;;;5113171;28;20531;-67
2022/06/28 13:31:24;;;;;;;6.60;2.77;;;;;;;;;;5113573;28;20508;-69
2022/06/28 13:33:51;;;;;;;2.70;2.50;;;;;;;;;;5113449;28;20446;-66
2022/06/28 13:36:19;;;;;;;4.30;2.77;;;;;;;;;;5113729;28;20438;-67
2022/06/28 13:38:46;;;;;;;4.87;2.90;;;;;;;;;;5113451;28;20575;-69
2022/06/28 13:41:14;;;;;;;6.90;2.90;;;;;;;;;;5113346;28;20527;-67
2022/06/28 13:43:45;;;;;;;2.50;2.30;;;;;;;;;;5113745;28;20510;-68
2022/06/28 13:46:13;;;;;;;3.17;2.40;;;;;;;;;;5113369;28;20435;-69
2022/06/28 13:48:42;;;;;;;4.67;2.83;;;;;;;;;;5113720;28;20433;-68
2022/06/28 13:51:09;;;;;;;3.50;2.57;;;;;;;;;;5113252;28;20559;-69
2022/06/28 13:53:37;;;;;;;3.37;3.00;;;;;;;;;;5113256;28;20443;-68
2022/06/28 13:56:05;;;;;;;7.37;3.37;;;;;;;;;;5113750;28;20818;-68
2022/06/28 13:58:33;;;;;;;4.00;2.77;;;;;;;;;;5113702;28;20548;-69
2022/06/28 14:01:01;;;;;;;7.03;2.80;;;;;;;;;;5114102;28;20529;-68
2022/06/28 14:03:28;;;;;;;2.60;2.33;;;;;;;;;;5113795;28;20532;-69
2022/06/28 14:05:57;;;;;;;4.67;2.80;;;;;;;;;;5113533;28;20456;-68
2022/06/28 14:08:25;;;;;;;3.70;2.83;;;;;;;;;;5113479;28;20476;-69
2022/06/28 14:10:53;;;;;;;3.23;2.77;;;;;;;;;;5113022;28;20435;-68
2022/06/28 14:13:22;;;;;;;3.23;2.70;;;;;;;;;;5112916;28;20473;-69
2022/06/28 14:15:49;;;;;;;5.67;2.67;;;;;;;;;;5113263;28;20469;-69
2022/06/28 14:18:17;;;;;;;3.77;2.60;;;;;;;;;;5113626;28;20552;-69
2022/06/28 14:20:44;;;;;;;6.33;2.90;;;;;;;;;;5113412;28;20465;-68
2022/06/28 14:23:12;;;;;;;3.37;2.77;;;;;;;;;;5113206;28;20519;-69
2022/06/28 14:25:41;;;;;;;3.07;2.60;;;;;;;;;;5114122;28;20500;-69
2022/06/28 14:28:09;;;;;;;3.33;3.00;;;;;;;;;;5116850;28;20416;-69
2022/06/28 14:30:36;;;;;;;5.03;2.77;;;;;;;;;;5116554;28;20449;-68
2022/06/28 14:33:04;;;;;;;3.80;2.70;;;;;;;;;;5116248;28;20527;-69
2022/06/28 14:35:31;;;;;;;3.17;2.60;;;;;;;;;;5116943;28;20500;-68
2022/06/28 14:37:59;;;;;;;5.47;2.63;;;;;;;;;;5116277;28;20568;-69
2022/06/28 14:40:27;;;;;;;5.03;2.63;;;;;;;;;;5116710;28;20423;-68
2022/06/28 14:42:55;;;;;;;3.83;2.50;;;;;;;;;;5116894;28;20424;-67
2022/06/28 14:45:22;;;;;;;4.30;2.40;;;;;;;;;;5117012;28;20833;-69
2022/06/28 14:47:49;;;;;;;3.30;2.60;;;;;;;;;;5116151;28;20490;-69
2022/06/28 14:50:17;;;;;;;4.00;2.67;;;;;;;;;;5115979;28;20809;-70